Time;durP1;ratioP1;P1;durP2;ratioP2;P2;SDS_P1;SDS_P2;PMS_P1;PMS_P2;Temp;Humidity;BMP_temperature;BMP_pressure;BME280_temperature;BME280_humidity;BME280_pressure;Samples;Min_cycle;Max_cycle;Signal;HPM_P1;HPM_P2
2022/06/05 00:00:29;;;;;;;11.47;7.07;;;;;;;17.61;63.13;101582.72;5070186;28;20032;-87
2022/06/05 00:03:09;;;;;;;9.37;6.87;;;;;;;17.63;62.98;101600.56;5083716;28;20050;-86
2022/06/05 00:05:51;;;;;;;10.07;6.70;;;;;;;17.60;63.08;101584.63;5069392;28;20096;-86
2022/06/05 00:08:16;;;;;;;8.60;6.80;;;;;;;17.60;63.38;101590.09;5070318;28;20039;-87
2022/06/05 00:10:56;;;;;;;11.57;6.83;;;;;;;17.62;62.90;101598.09;5069174;28;20360;-88
2022/06/05 00:13:36;;;;;;;11.33;7.07;;;;;;;17.58;63.83;101588.69;5069505;28;20581;-86
2022/06/05 00:16:02;;;;;;;8.60;6.50;;;;;;;17.58;63.77;101575.78;5069322;28;20039;-86
2022/06/05 00:18:32;;;;;;;8.97;6.90;;;;;;;17.51;63.65;101566.88;5070142;28;20665;-85
2022/06/05 00:20:58;;;;;;;9.73;7.10;;;;;;;17.53;63.55;101562.84;5069517;28;20033;-86
2022/06/05 00:23:24;;;;;;;11.27;6.83;;;;;;;17.51;63.42;101559.50;5069617;28;20066;-85
2022/06/05 00:26:12;;;;;;;10.53;7.20;;;;;;;17.51;63.89;101562.22;5069347;28;20125;-87
2022/06/05 00:28:43;;;;;;;10.63;7.20;;;;;;;17.46;64.22;101561.28;5069356;28;20503;-87
2022/06/05 00:31:14;;;;;;;10.93;7.20;;;;;;;17.44;64.26;101557.97;5067416;28;20039;-87
2022/06/05 00:33:40;;;;;;;10.00;7.10;;;;;;;17.35;64.09;101558.34;5069520;28;20141;-90
2022/06/05 00:36:26;;;;;;;10.33;6.90;;;;;;;17.37;63.87;101558.91;5069420;28;20047;-86
2022/06/05 00:39:19;;;;;;;11.60;7.03;;;;;;;17.37;64.23;101553.44;5069039;28;20043;-85
2022/06/05 00:41:50;;;;;;;11.10;7.27;;;;;;;17.32;64.22;101550.59;5084719;28;21466;-86
2022/06/05 00:44:23;;;;;;;10.70;6.90;;;;;;;17.34;63.70;101548.44;5069490;28;20508;-85
2022/06/05 00:46:50;;;;;;;11.20;7.30;;;;;;;17.25;64.10;101538.13;5068380;28;20364;-86
2022/06/05 00:49:17;;;;;;;10.67;7.13;;;;;;;17.20;64.29;101533.34;5070248;28;20048;-85
2022/06/05 00:51:42;;;;;;;12.53;7.20;;;;;;;17.25;64.67;101540.84;5068652;28;20352;-85
2022/06/05 00:54:09;;;;;;;11.57;7.10;;;;;;;17.21;64.47;101540.47;5069685;28;20059;-85
2022/06/05 00:56:36;;;;;;;12.17;7.23;;;;;;;17.09;64.96;101523.22;5045809;28;20056;-86
2022/06/05 00:59:02;;;;;;;10.93;7.37;;;;;;;17.14;65.20;101528.84;5069382;28;20076;-85
2022/06/05 01:01:27;;;;;;;11.73;7.10;;;;;;;17.00;64.91;101514.56;5069728;28;20029;-89
2022/06/05 01:04:00;;;;;;;9.90;7.20;;;;;;;17.08;65.18;101533.38;5067867;28;20036;-86
2022/06/05 01:06:26;;;;;;;11.53;7.53;;;;;;;17.09;65.09;101532.28;5068701;28;20032;-86
2022/06/05 01:08:51;;;;;;;10.87;7.30;;;;;;;17.05;65.16;101533.81;5079636;28;20075;-87
2022/06/05 01:11:34;;;;;;;11.20;7.13;;;;;;;17.10;64.72;101547.63;5068659;28;20051;-86
2022/06/05 01:14:12;;;;;;;10.67;6.97;;;;;;;16.98;65.13;101528.47;5068784;28;20032;-86
2022/06/05 01:16:40;;;;;;;8.77;7.23;;;;;;;17.01;65.53;101533.47;5068683;28;20445;-87
2022/06/05 01:19:25;;;;;;;10.17;7.37;;;;;;;17.02;64.98;101521.44;5068050;28;20062;-86
2022/06/05 01:22:18;;;;;;;10.10;7.35;;;;;;;17.02;64.83;101523.34;5068504;28;20472;-86
2022/06/05 01:24:52;;;;;;;10.90;7.33;;;;;;;16.97;64.96;101523.22;5068963;28;20036;-85
2022/06/05 01:27:21;;;;;;;;;;;;;;;17.06;64.20;101534.66;5068838;28;20043;-86
2022/06/05 01:29:58;;;;;;;11.37;7.27;;;;;;;16.97;65.20;101515.88;5068605;28;19930;-86
2022/06/05 01:32:34;;;;;;;13.87;7.47;;;;;;;16.90;65.55;101508.84;5068339;28;20078;-84
2022/06/05 01:35:14;;;;;;;10.13;7.80;;;;;;;16.95;65.51;101515.25;5074230;28;20036;-85
2022/06/05 01:37:54;;;;;;;12.30;7.77;;;;;;;16.91;65.06;101510.50;5068604;28;20028;-86
2022/06/05 01:40:29;;;;;;;9.47;7.40;;;;;;;16.87;65.13;101501.91;5068273;28;20043;-87
2022/06/05 01:42:57;;;;;;;;;;;;;;;16.97;64.20;101507.66;5080676;28;20035;-85
2022/06/05 01:45:32;;;;;;;12.57;7.40;;;;;;;16.94;64.72;101508.09;5068641;28;20306;-87
2022/06/05 01:48:00;;;;;;;13.13;7.70;;;;;;;16.91;64.84;101521.47;5067920;28;20106;-87
2022/06/05 01:50:40;;;;;;;12.40;7.77;;;;;;;16.90;64.22;101528.81;5066824;28;20059;-85
2022/06/05 01:53:18;;;;;;;10.60;7.57;;;;;;;16.91;64.15;101551.56;5068061;28;20028;-85
2022/06/05 01:55:51;;;;;;;10.80;7.50;;;;;;;16.91;64.55;101543.34;5068625;28;20181;-85
2022/06/05 01:58:21;;;;;;;8.83;7.27;;;;;;;16.85;65.50;101528.69;5067138;28;20028;-85
2022/06/05 02:00:54;;;;;;;9.33;6.73;;;;;;;16.87;65.85;101551.16;5066200;28;20040;-86
2022/06/05 02:03:26;;;;;;;9.00;6.95;;;;;;;16.87;64.76;101564.84;5067597;28;20499;-86
2022/06/05 02:06:00;;;;;;;11.43;7.60;;;;;;;16.87;64.93;101542.94;5065001;28;20367;-86
2022/06/05 02:08:46;;;;;;;10.05;7.03;;;;;;;16.98;64.48;101524.91;5067256;28;20036;-84
2022/06/05 02:11:25;;;;;;;11.97;7.10;;;;;;;16.85;64.75;101479.44;5079652;28;20468;-86
2022/06/05 02:13:58;;;;;;;10.00;7.83;;;;;;;16.98;64.61;101498.34;5068376;28;20040;-86
2022/06/05 02:16:25;;;;;;;12.88;7.53;;;;;;;16.93;65.56;101492.78;5065763;28;20068;-86
2022/06/05 02:18:51;;;;;;;11.90;7.73;;;;;;;16.90;65.23;101487.75;5073669;28;20183;-85
2022/06/05 02:21:16;;;;;;;9.60;7.20;;;;;;;16.82;64.86;101468.94;5067920;28;20032;-85
2022/06/05 02:23:42;;;;;;;9.70;7.00;;;;;;;16.87;64.43;101472.63;5068717;28;20044;-86
2022/06/05 02:26:09;;;;;;;10.00;7.57;;;;;;;16.87;65.37;101471.78;5067494;28;21365;-85
2022/06/05 02:28:36;;;;;;;10.10;7.90;;;;;;;16.77;65.50;101477.03;5084115;28;20131;-85
2022/06/05 02:31:08;;;;;;;11.23;7.80;;;;;;;16.80;65.00;101462.88;5063183;28;21496;-85
2022/06/05 02:33:59;;;;;;;11.70;7.43;;;;;;;16.75;65.64;101454.56;5066321;28;22023;-85
2022/06/05 02:36:41;;;;;;;10.10;7.07;;;;;;;16.75;65.37;101438.13;5064660;28;20101;-87
2022/06/05 02:39:42;;;;;;;11.33;7.57;;;;;;;16.58;65.21;101407.91;5067788;28;20894;-86
2022/06/05 02:42:37;;;;;;;10.33;6.90;;;;;;;16.61;65.73;101435.63;5066871;28;20439;-86
2022/06/05 02:45:15;;;;;;;;;;;;;;;16.66;64.95;101427.53;5067570;28;20033;-86
2022/06/05 02:48:10;;;;;;;11.63;7.37;;;;;;;16.57;65.89;101434.44;5067948;28;20375;-86
2022/06/05 02:50:49;;;;;;;13.93;7.70;;;;;;;16.49;66.24;101434.81;5067421;28;20105;-85
2022/06/05 02:53:15;;;;;;;10.77;7.73;;;;;;;16.54;66.20;101429.47;5068991;28;20028;-86
2022/06/05 02:55:41;;;;;;;10.73;7.77;;;;;;;16.49;66.04;101415.66;5071765;28;20028;-86
2022/06/05 02:58:07;;;;;;;12.80;8.17;;;;;;;16.45;66.34;101415.28;5070974;28;20040;-84
2022/06/05 03:00:35;;;;;;;13.77;8.53;;;;;;;16.38;66.91;101412.66;5071971;28;20167;-85
2022/06/05 03:05:44;;;;;;;11.90;7.97;;;;;;;16.37;68.21;101407.44;5071391;28;20067;-85
2022/06/05 03:08:13;;;;;;;11.70;7.90;;;;;;;16.28;67.64;101389.72;5076848;28;20460;-86
2022/06/05 03:10:39;;;;;;;13.27;7.80;;;;;;;16.38;67.36;101398.16;5069060;28;20490;-85
2022/06/05 03:13:05;;;;;;;11.07;7.70;;;;;;;16.29;67.94;101386.75;5070705;28;20051;-86
2022/06/05 03:15:31;;;;;;;12.00;8.10;;;;;;;16.26;67.57;101387.22;5070936;28;20032;-85
2022/06/05 03:17:57;;;;;;;13.17;8.67;;;;;;;16.07;68.54;101382.94;5068405;28;20057;-85
2022/06/05 03:20:23;;;;;;;12.57;8.40;;;;;;;16.04;68.99;101381.50;5071916;28;20036;-86
2022/06/05 03:22:49;;;;;;;15.43;8.60;;;;;;;15.97;69.11;101381.59;5069714;28;20038;-86
2022/06/05 03:25:19;;;;;;;12.87;8.60;;;;;;;15.80;68.97;101364.22;5072079;28;20033;-86
2022/06/05 03:27:45;;;;;;;13.87;8.90;;;;;;;15.92;69.15;101362.34;5071146;28;20040;-86
2022/06/05 03:30:11;;;;;;;13.40;8.70;;;;;;;15.89;69.13;101354.63;5068463;28;20042;-86
2022/06/05 03:32:37;;;;;;;13.70;9.07;;;;;;;15.91;69.67;101359.84;5070866;28;20039;-86
2022/06/05 03:35:04;;;;;;;15.90;9.10;;;;;;;15.88;68.91;101363.88;5070374;28;20036;-86
2022/06/05 03:37:29;;;;;;;14.70;8.83;;;;;;;15.90;69.45;101359.03;5070931;28;20039;-86
2022/06/05 03:39:55;;;;;;;12.67;8.90;;;;;;;15.91;68.77;101354.38;5071345;28;20040;-86
2022/06/05 03:42:20;;;;;;;15.20;8.80;;;;;;;15.82;69.30;101334.78;5071184;28;20048;-84
2022/06/05 03:44:46;;;;;;;15.03;8.80;;;;;;;15.91;69.24;101347.03;5070461;28;20123;-85
2022/06/05 03:47:12;;;;;;;13.23;8.80;;;;;;;15.99;68.79;101356.75;5070532;28;20032;-84
2022/06/05 03:49:38;;;;;;;13.40;8.53;;;;;;;15.97;68.53;101359.72;5055006;28;20620;-86
2022/06/05 03:52:04;;;;;;;12.83;8.67;;;;;;;15.91;69.52;101355.22;5070601;28;20058;-86
2022/06/05 03:54:31;;;;;;;15.73;8.97;;;;;;;15.91;69.00;101351.66;5070169;28;20205;-85
2022/06/05 03:56:57;;;;;;;12.10;8.90;;;;;;;15.89;69.51;101351.06;5070914;28;20024;-86
2022/06/05 03:59:22;;;;;;;13.63;9.30;;;;;;;15.92;69.69;101358.78;5070378;28;20063;-86
2022/06/05 04:01:48;;;;;;;13.63;9.27;;;;;;;15.91;69.83;101359.84;5070831;28;20035;-86
2022/06/05 04:04:14;;;;;;;13.63;8.87;;;;;;;15.92;69.18;101377.91;5068777;28;20040;-86
2022/06/05 04:06:39;;;;;;;14.93;8.93;;;;;;;15.89;69.78;101376.47;5070848;28;20029;-87
2022/06/05 04:09:07;;;;;;;13.43;8.70;;;;;;;15.89;69.74;101362.00;5048543;28;20694;-85
2022/06/05 04:11:35;;;;;;;13.13;9.23;;;;;;;15.82;70.02;101351.16;5068243;28;20047;-86
2022/06/05 04:14:00;;;;;;;14.57;9.50;;;;;;;15.88;69.74;101355.69;5070318;28;20036;-85
2022/06/05 04:16:28;;;;;;;14.23;9.00;;;;;;;15.89;70.11;101362.00;5069681;28;20062;-86
2022/06/05 04:18:54;;;;;;;14.50;9.27;;;;;;;15.81;69.48;101350.31;5081049;28;20050;-86
2022/06/05 04:21:25;;;;;;;14.13;8.90;;;;;;;15.86;69.46;101355.09;5069914;28;20036;-85
2022/06/05 04:23:52;;;;;;;12.70;8.77;;;;;;;15.80;69.92;101345.09;5069789;28;20495;-86
2022/06/05 04:26:20;;;;;;;14.93;9.60;;;;;;;15.74;70.03;101338.63;5068965;28;20487;-86
2022/06/05 04:28:46;;;;;;;16.50;10.60;;;;;;;15.67;71.00;101335.19;5069509;28;20040;-87
2022/06/05 04:31:20;;;;;;;14.63;9.13;;;;;;;15.69;70.59;101336.63;5047089;28;20040;-85
2022/06/05 04:33:46;;;;;;;13.77;9.48;;;;;;;15.63;71.07;101315.69;5070154;28;20048;-87
2022/06/05 04:36:12;;;;;;;13.23;9.53;;;;;;;15.61;70.88;101326.03;5068884;28;20035;-85
2022/06/05 04:38:38;;;;;;;15.30;10.00;;;;;;;15.61;70.87;101330.66;5068458;28;20399;-85
2022/06/05 04:41:03;;;;;;;13.43;8.87;;;;;;;15.65;70.96;101334.56;5069826;28;21465;-85
2022/06/05 04:43:29;;;;;;;16.93;9.97;;;;;;;15.62;70.51;101335.88;5069709;28;20040;-84
2022/06/05 04:45:54;;;;;;;14.63;9.63;;;;;;;15.61;70.77;101336.09;5048370;28;20046;-86
2022/06/05 04:48:19;;;;;;;16.63;9.60;;;;;;;15.59;71.23;101335.53;5068167;28;20150;-86
2022/06/05 04:50:45;;;;;;;16.63;10.10;;;;;;;15.61;71.00;101344.31;5069019;28;20464;-85
2022/06/05 04:53:10;;;;;;;13.87;9.53;;;;;;;15.53;70.44;101327.19;5067217;28;20042;-84
2022/06/05 04:55:37;;;;;;;15.57;10.30;;;;;;;15.60;71.02;101337.16;5065345;28;20353;-86
2022/06/05 04:58:04;;;;;;;16.10;9.57;;;;;;;15.65;71.25;101335.44;5068512;28;20036;-86
2022/06/05 05:00:29;;;;;;;13.60;10.27;;;;;;;15.70;70.50;101337.44;5068879;28;20032;-86
2022/06/05 05:02:55;;;;;;;15.57;10.37;;;;;;;15.70;70.79;101338.25;5068383;28;20385;-86
2022/06/05 05:05:20;;;;;;;15.03;9.90;;;;;;;15.74;70.41;101343.28;5068837;28;20618;-86
2022/06/05 05:07:46;;;;;;;14.93;10.00;;;;;;;15.72;70.85;101339.94;5068282;28;20350;-86
2022/06/05 05:10:11;;;;;;;15.20;10.43;;;;;;;15.73;71.05;101341.59;5067785;28;20037;-86
2022/06/05 05:12:37;;;;;;;14.33;9.87;;;;;;;15.65;70.76;101327.22;5069483;28;20388;-86
2022/06/05 05:15:03;;;;;;;14.43;10.07;;;;;;;15.72;70.56;101348.13;5068537;28;20392;-87
2022/06/05 05:17:28;;;;;;;15.23;9.83;;;;;;;15.73;70.81;101336.13;5066900;28;20365;-86
2022/06/05 05:19:55;;;;;;;17.13;10.07;;;;;;;15.67;70.51;101333.28;5068851;28;20054;-88
2022/06/05 05:22:21;;;;;;;13.20;9.50;;;;;;;15.59;70.05;101324.59;5068407;28;20028;-87
2022/06/05 05:24:47;;;;;;;14.40;9.60;;;;;;;15.71;70.70;101347.31;5069287;28;20040;-85
2022/06/05 05:27:13;;;;;;;14.17;9.37;;;;;;;15.76;70.35;101360.25;5067990;28;20606;-86
2022/06/05 05:29:40;;;;;;;13.97;9.80;;;;;;;15.76;70.16;101361.09;5068099;28;20157;-87
2022/06/05 05:32:06;;;;;;;13.57;9.80;;;;;;;15.66;69.99;101333.50;5084048;28;20433;-85
2022/06/05 05:34:31;;;;;;;14.80;10.30;;;;;;;15.73;70.48;101347.06;5069290;28;20036;-86
2022/06/05 05:36:56;;;;;;;13.87;10.23;;;;;;;15.84;69.88;101359.94;5068954;28;20484;-86
2022/06/05 05:42:06;;;;;;;13.15;9.90;;;;;;;15.86;70.14;101341.44;5068655;28;20133;-85
2022/06/05 05:44:46;;;;;;;16.40;9.60;;;;;;;15.91;69.54;101335.25;5081099;28;20476;-86
2022/06/05 05:47:18;;;;;;;15.33;10.40;;;;;;;15.92;69.55;101351.41;5068205;28;20039;-86
2022/06/05 05:49:44;;;;;;;13.83;9.87;;;;;;;16.03;69.04;101353.34;5068731;28;20658;-86
2022/06/05 05:52:11;;;;;;;15.47;9.70;;;;;;;16.06;69.13;101353.91;5068032;28;20035;-85
2022/06/05 05:54:37;;;;;;;15.07;10.23;;;;;;;16.01;69.79;101344.53;5068683;28;20039;-87
2022/06/05 05:57:04;;;;;;;14.30;10.00;;;;;;;16.06;69.29;101351.19;5066706;28;20049;-87
2022/06/05 05:59:30;;;;;;;15.70;10.07;;;;;;;16.08;69.35;101328.03;5068133;28;20434;-86
2022/06/05 06:01:55;;;;;;;14.67;10.27;;;;;;;16.12;69.55;101328.38;5067956;28;21487;-86
2022/06/05 06:04:21;;;;;;;14.07;10.10;;;;;;;16.21;69.31;101335.16;5067937;28;20043;-84
2022/06/05 06:06:49;;;;;;;14.73;9.73;;;;;;;16.23;68.93;101334.94;5068201;28;20096;-86
2022/06/05 06:09:14;;;;;;;12.17;9.17;;;;;;;16.27;68.93;101330.66;5068559;28;20050;-86
2022/06/05 06:11:40;;;;;;;13.97;9.30;;;;;;;16.33;68.47;101325.06;5066976;28;20759;-90
2022/06/05 06:14:05;;;;;;;15.67;10.07;;;;;;;16.38;68.09;101319.69;5056259;28;20036;-87
2022/06/05 06:16:31;;;;;;;12.83;9.40;;;;;;;16.44;68.27;101317.06;5068194;28;20040;-89
2022/06/05 06:18:57;;;;;;;12.60;9.20;;;;;;;16.44;68.06;101297.91;5066097;28;20036;-86
2022/06/05 06:21:23;;;;;;;13.57;9.27;;;;;;;16.49;68.26;101306.25;5068171;28;20044;-88
2022/06/05 06:23:49;;;;;;;13.90;9.60;;;;;;;16.57;67.10;101307.78;5067629;28;20032;-87
2022/06/05 06:26:15;;;;;;;13.57;9.63;;;;;;;16.66;68.78;101304.44;5067757;28;20353;-85
2022/06/05 06:28:40;;;;;;;14.97;10.13;;;;;;;16.68;67.75;101294.06;5070881;28;20036;-86
2022/06/05 06:31:13;;;;;;;15.20;10.00;;;;;;;16.73;68.26;101279.69;5071775;28;20036;-85
2022/06/05 06:33:39;;;;;;;13.87;9.90;;;;;;;16.83;67.87;101292.72;5071043;28;20035;-85
2022/06/05 06:36:16;;;;;;;13.00;9.80;;;;;;;16.89;67.99;101294.53;5071474;28;20036;-87
2022/06/05 06:38:41;;;;;;;15.07;9.63;;;;;;;16.96;67.15;101289.75;5071882;28;20658;-85
2022/06/05 06:41:10;;;;;;;12.40;9.20;;;;;;;17.00;66.46;101290.91;5067471;28;20040;-84
2022/06/05 06:43:36;;;;;;;14.90;9.57;;;;;;;17.12;67.41;101293.63;5072184;28;20045;-86
2022/06/05 06:46:02;;;;;;;12.17;9.17;;;;;;;17.09;66.65;101265.88;5071709;28;20414;-85
2022/06/05 06:48:29;;;;;;;15.23;9.83;;;;;;;17.30;66.77;101269.81;5071418;28;20056;-87
2022/06/05 06:50:56;;;;;;;15.93;9.70;;;;;;;17.40;66.91;101260.97;5071966;28;20063;-85
2022/06/05 06:53:21;;;;;;;13.53;9.77;;;;;;;17.46;66.08;101246.25;5070061;28;20036;-86
2022/06/05 06:55:48;;;;;;;13.70;9.47;;;;;;;17.58;65.89;101265.38;5071700;28;20025;-88
2022/06/05 06:58:13;;;;;;;12.83;9.50;;;;;;;17.60;66.91;101255.81;5074590;28;20054;-86
2022/06/05 07:00:39;;;;;;;13.23;9.67;;;;;;;17.68;66.84;101249.09;5092675;28;20058;-85
2022/06/05 07:03:04;;;;;;;13.70;9.10;;;;;;;17.71;64.54;101240.38;5072391;28;20040;-85
2022/06/05 07:05:30;;;;;;;11.87;9.43;;;;;;;17.85;66.15;101240.84;5070022;28;20036;-86
2022/06/05 07:07:56;;;;;;;12.60;9.40;;;;;;;17.93;65.76;101231.41;5071180;28;21153;-87
2022/06/05 07:10:21;;;;;;;14.70;9.83;;;;;;;17.97;65.24;101249.84;5070566;28;20039;-85
2022/06/05 07:12:47;;;;;;;14.97;9.10;;;;;;;18.08;64.24;101250.00;5071673;28;20522;-87
2022/06/05 07:15:13;;;;;;;12.27;9.47;;;;;;;18.15;63.88;101250.66;5071149;28;20147;-85
2022/06/05 07:17:39;;;;;;;11.83;9.17;;;;;;;18.26;65.33;101230.50;5071057;28;20484;-86
2022/06/05 07:20:04;;;;;;;13.30;9.70;;;;;;;18.32;65.59;101225.94;5068444;28;20036;-85
2022/06/05 07:22:30;;;;;;;11.63;9.67;;;;;;;18.33;65.21;101214.69;5071923;28;20127;-88
2022/06/05 07:24:55;;;;;;;11.43;9.73;;;;;;;18.43;64.34;101214.00;5068905;28;20541;-86
2022/06/05 07:27:21;;;;;;;13.03;10.23;;;;;;;18.50;63.70;101219.28;5070097;28;20044;-87
2022/06/05 07:29:46;;;;;;;12.23;10.00;;;;;;;18.60;63.10;101224.06;5070275;28;20248;-88
2022/06/05 07:32:13;;;;;;;13.30;10.03;;;;;;;18.67;63.43;101219.19;5070569;28;20285;-87
2022/06/05 07:34:39;;;;;;;13.90;9.43;;;;;;;18.72;64.59;101206.34;5070949;28;20272;-85
2022/06/05 07:37:05;;;;;;;12.67;10.03;;;;;;;18.86;63.89;101217.78;5071626;28;20480;-86
2022/06/05 07:39:30;;;;;;;13.67;9.87;;;;;;;18.95;63.45;101206.34;5070321;28;20047;-86
2022/06/05 07:41:58;;;;;;;13.50;9.83;;;;;;;19.04;64.07;101202.06;5070904;28;20580;-86
2022/06/05 07:44:25;;;;;;;14.13;10.00;;;;;;;19.21;63.83;101207.41;5075543;28;20438;-86
2022/06/05 07:46:50;;;;;;;11.13;9.63;;;;;;;19.32;63.19;101209.16;5070306;28;20476;-85
2022/06/05 07:49:16;;;;;;;12.57;10.33;;;;;;;19.39;62.86;101209.78;5070200;28;20059;-85
2022/06/05 07:54:33;;;;;;;11.77;9.57;;;;;;;19.58;61.53;101198.34;5070230;28;21054;-85
2022/06/05 07:57:02;;;;;;;14.00;9.80;;;;;;;19.66;61.22;101202.56;5070492;28;20093;-86
2022/06/05 07:59:29;;;;;;;11.32;9.88;;;;;;;19.70;62.41;101193.50;5070235;28;20067;-86
2022/06/05 08:02:00;;;;;;;12.27;9.82;;;;;;;19.81;61.55;101196.34;5082254;28;20569;-86
2022/06/05 08:04:26;;;;;;;11.27;9.48;;;;;;;19.95;61.20;101182.97;5070291;28;20036;-87
2022/06/05 08:06:53;;;;;;;13.52;10.13;;;;;;;19.96;60.27;101182.69;5070670;28;20032;-86
2022/06/05 08:09:19;;;;;;;11.43;9.60;;;;;;;20.12;61.65;101182.78;5070408;28;20032;-86
2022/06/05 08:11:45;;;;;;;11.10;9.05;;;;;;;20.19;59.79;101164.09;5069996;28;20304;-84
2022/06/05 08:14:12;;;;;;;13.48;9.68;;;;;;;20.44;61.48;101166.13;5068384;28;20093;-85
2022/06/05 08:16:39;;;;;;;12.18;9.45;;;;;;;20.49;58.93;101165.31;5070370;28;20066;-85
2022/06/05 08:19:05;;;;;;;13.18;9.75;;;;;;;20.60;61.14;101150.47;5052032;28;21342;-85
2022/06/05 08:21:31;;;;;;;11.25;9.27;;;;;;;20.89;59.07;101161.03;5069499;28;20093;-87
2022/06/05 08:23:56;;;;;;;11.90;9.80;;;;;;;21.04;58.65;101160.22;5069082;28;20047;-85
2022/06/05 08:26:22;;;;;;;12.52;10.15;;;;;;;21.15;59.13;101158.28;5069236;28;20056;-85
2022/06/05 08:28:47;;;;;;;13.95;10.00;;;;;;;21.37;58.75;101169.00;5069945;28;20047;-85
2022/06/05 08:31:12;;;;;;;13.25;10.43;;;;;;;21.58;58.55;101175.34;5070241;28;20194;-87
2022/06/05 08:33:38;;;;;;;13.88;10.73;;;;;;;21.57;58.90;101159.94;5069777;28;20047;-85
2022/06/05 08:36:04;;;;;;;12.68;10.40;;;;;;;21.72;58.99;101164.59;5068738;28;20132;-85
2022/06/05 08:41:29;;;;;;;13.68;10.18;;;;;;;22.08;57.11;101157.00;5068971;28;20122;-84
2022/06/05 08:44:35;;;;;;;11.73;10.13;;;;;;;22.33;56.03;101152.50;5068858;28;20036;-87
2022/06/05 08:47:08;;;;;;;10.98;9.75;;;;;;;22.09;55.93;101147.63;4983825;28;20034;-86
2022/06/05 08:49:44;;;;;;;13.45;9.88;;;;;;;22.16;55.21;101163.06;5058820;28;20477;-89
2022/06/05 08:52:18;;;;;;;11.45;9.73;;;;;;;22.06;55.82;101167.50;5069220;28;20051;-87
2022/06/05 08:54:44;;;;;;;10.90;9.65;;;;;;;22.00;55.91;101171.38;5069855;28;20055;-89
2022/06/05 08:57:24;;;;;;;10.68;9.57;;;;;;;21.88;56.53;101162.59;5069411;28;20040;-88
2022/06/05 08:59:57;;;;;;;11.70;9.77;;;;;;;21.68;56.93;101164.31;5068860;28;20705;-86
2022/06/05 09:02:31;;;;;;;11.60;9.95;;;;;;;21.65;56.97;101162.13;5068855;28;20116;-86
2022/06/05 09:05:02;;;;;;;11.30;9.45;;;;;;;21.59;58.09;101171.50;5069515;28;21284;-85
2022/06/05 09:08:14;;;;;;;12.70;10.48;;;;;;;21.71;57.98;101174.78;5069856;28;20028;-86
2022/06/05 09:10:45;;;;;;;12.52;10.27;;;;;;;21.47;58.37;101160.72;5005610;28;20045;-91
2022/06/05 09:13:25;;;;;;;11.80;9.73;;;;;;;21.41;58.23;101167.34;5062674;28;20450;-85
2022/06/05 09:15:57;;;;;;;13.73;10.35;;;;;;;21.36;58.77;101165.41;5068234;28;20036;-87
2022/06/05 09:18:24;;;;;;;12.15;10.15;;;;;;;21.34;59.00;101170.38;5069348;28;20617;-86
2022/06/05 09:20:58;;;;;;;11.32;10.13;;;;;;;21.33;60.28;101171.50;5069002;28;20108;-85
2022/06/05 09:23:36;;;;;;;13.18;10.45;;;;;;;21.28;59.46;101168.72;5069974;28;20045;-87
2022/06/05 09:26:19;;;;;;;13.57;10.35;;;;;;;21.29;59.38;101173.16;5068754;28;20036;-87
2022/06/05 09:29:10;;;;;;;11.60;10.40;;;;;;;21.06;59.77;101138.72;5068752;28;20036;-85
2022/06/05 09:32:14;;;;;;;11.13;9.77;;;;;;;21.21;60.22;101154.41;5069237;28;20093;-85
2022/06/05 09:34:46;;;;;;;12.53;10.23;;;;;;;21.12;60.52;101150.53;5064444;28;20044;-84
2022/06/05 09:37:22;;;;;;;12.52;10.38;;;;;;;21.12;60.25;101147.78;5068779;28;20032;-85
2022/06/05 09:40:15;;;;;;;16.35;10.27;;;;;;;21.15;61.41;101152.78;5069323;28;20046;-82
2022/06/05 09:43:04;;;;;;;13.18;10.40;;;;;;;21.08;61.41;101142.84;5068703;28;20032;-83
2022/06/05 09:46:08;;;;;;;11.68;10.45;;;;;;;21.15;61.12;101144.50;5068696;28;20463;-85
2022/06/05 09:48:46;;;;;;;15.43;10.30;;;;;;;21.02;61.31;101138.41;5068511;28;20048;-85
2022/06/05 09:51:15;;;;;;;11.85;10.30;;;;;;;21.03;62.05;101142.03;5069208;28;20032;-86
2022/06/05 09:53:58;;;;;;;20.55;11.05;;;;;;;20.89;61.33;101111.44;5069245;28;20676;-88
2022/06/05 09:58:24;;;;;;;17.27;11.80;;;;;;;20.96;61.67;101136.78;5069047;28;20073;-87
2022/06/05 09:59:27;;;;;;;11.98;10.65;;;;;;;20.80;61.96;101110.34;5067203;28;20077;-86
2022/06/05 10:01:59;;;;;;;12.43;10.80;;;;;;;20.86;62.10;101132.09;5066954;28;20039;-85
2022/06/05 10:04:29;;;;;;;14.05;11.25;;;;;;;20.88;62.02;101129.06;5066292;28;20375;-86
2022/06/05 10:07:04;;;;;;;13.52;11.20;;;;;;;20.82;62.08;101114.47;5068423;28;20040;-86
2022/06/05 10:09:31;;;;;;;12.55;10.95;;;;;;;20.76;62.85;101103.72;5068721;28;20670;-87
2022/06/05 10:12:03;;;;;;;13.73;11.13;;;;;;;20.74;62.55;101115.84;5078462;28;20701;-88
2022/06/05 10:15:16;;;;;;;13.10;11.43;;;;;;;20.81;62.71;101114.75;5068330;28;20472;-86
2022/06/05 10:17:51;;;;;;;13.05;11.30;;;;;;;20.70;63.10;101106.47;5068112;28;20123;-84
2022/06/05 10:20:22;;;;;;;14.70;11.05;;;;;;;20.76;63.23;101100.97;5066660;28;20715;-84
2022/06/05 10:22:57;;;;;;;15.98;12.07;;;;;;;20.63;64.61;101097.63;5067655;28;20472;-85
2022/06/05 10:25:45;;;;;;;14.43;11.93;;;;;;;20.78;63.41;101102.34;5073511;28;20028;-84
2022/06/05 10:28:16;;;;;;;13.48;11.93;;;;;;;20.77;63.78;101099.84;5087058;28;20059;-84
2022/06/05 10:30:53;;;;;;;13.25;11.75;;;;;;;20.77;62.89;101084.19;5087048;28;20498;-85
2022/06/05 10:33:38;;;;;;;14.98;12.30;;;;;;;20.82;63.91;101091.59;5081145;28;20081;-84
2022/06/05 10:36:10;;;;;;;14.88;11.77;;;;;;;20.83;65.50;101094.06;5078827;28;20016;-84
2022/06/05 10:38:52;;;;;;;14.57;11.75;;;;;;;20.85;63.72;101096.56;5075035;28;20032;-84
2022/06/05 10:41:36;;;;;;;14.07;11.98;;;;;;;20.87;64.49;101100.69;5074885;28;20027;-85
2022/06/05 10:44:28;;;;;;;14.50;11.80;;;;;;;20.89;65.01;101098.50;5082518;28;20063;-85
2022/06/05 10:47:11;;;;;;;15.80;11.98;;;;;;;20.84;66.52;101094.91;5040950;28;20090;-84
2022/06/05 10:50:01;;;;;;;18.63;12.40;;;;;;;20.83;64.86;101099.59;5076239;28;20127;-86
2022/06/05 10:52:30;;;;;;;16.85;12.18;;;;;;;20.69;66.97;101099.31;5082231;28;20031;-86
2022/06/05 10:55:20;;;;;;;14.05;12.50;;;;;;;20.67;66.40;101095.13;5088639;28;20024;-86
2022/06/05 10:57:54;;;;;;;15.93;13.25;;;;;;;20.48;66.70;101087.44;5081454;28;20021;-85
2022/06/05 11:00:27;;;;;;;14.02;12.48;;;;;;;20.40;68.55;101082.47;5076688;28;20032;-83
2022/06/05 11:03:11;;;;;;;14.07;12.57;;;;;;;20.37;70.25;101092.09;5081226;28;20038;-85
2022/06/05 11:06:10;;;;;;;14.95;13.05;;;;;;;20.34;67.23;101089.84;5077383;28;20050;-85
2022/06/05 11:08:55;;;;;;;16.42;14.30;;;;;;;20.25;69.05;101094.25;5091019;28;20372;-86
2022/06/05 11:14:27;;;;;;;18.02;13.85;;;;;;;20.03;70.35;101086.19;5081394;28;20067;-85
2022/06/05 11:17:00;;;;;;;16.42;13.20;;;;;;;20.00;70.47;101082.03;5087846;28;20146;-83
2022/06/05 11:19:30;;;;;;;15.30;13.70;;;;;;;19.97;70.58;101079.84;5099335;28;20070;-83
2022/06/05 11:22:00;;;;;;;16.92;13.98;;;;;;;19.92;71.04;101071.56;5094802;28;20406;-83
2022/06/05 11:24:31;;;;;;;18.35;14.35;;;;;;;19.89;71.49;101072.94;5092023;28;20028;-83
2022/06/05 11:27:02;;;;;;;16.42;13.88;;;;;;;19.88;72.42;101068.56;5091010;28;20035;-83
2022/06/05 11:29:36;;;;;;;17.58;15.77;;;;;;;19.82;74.62;101068.78;5095161;28;20020;-84
2022/06/05 11:32:36;;;;;;;17.65;15.38;;;;;;;19.84;73.54;101064.69;5079134;28;20029;-85
2022/06/05 11:35:20;;;;;;;18.88;16.00;;;;;;;19.76;75.46;101064.31;5083209;28;20028;-85
2022/06/05 11:37:59;;;;;;;18.98;16.98;;;;;;;19.73;75.85;101060.19;5091807;28;20590;-84
2022/06/05 11:40:43;;;;;;;17.40;15.32;;;;;;;19.63;75.55;101060.16;5074539;28;20056;-83
2022/06/05 11:43:32;;;;;;;22.15;16.60;;;;;;;19.53;77.28;101053.50;5088333;28;20020;-83
2022/06/05 11:46:03;;;;;;;22.65;18.38;;;;;;;19.36;79.15;101061.91;5091570;28;20120;-85
2022/06/05 11:49:00;;;;;;;20.27;17.83;;;;;;;19.30;78.95;101065.75;5089567;28;20036;-83
2022/06/05 11:51:31;;;;;;;21.30;19.00;;;;;;;19.07;82.57;101069.72;5079301;28;20020;-82